Time;durP1;ratioP1;P1;durP2;ratioP2;P2;SDS_P1;SDS_P2;PMS_P1;PMS_P2;Temp;Humidity;BMP_temperature;BMP_pressure;BME280_temperature;BME280_humidity;BME280_pressure;Samples;Min_cycle;Max_cycle;Signal;HPM_P1;HPM_P2
2022/02/03 00:05:13;;;;;;;16.77;9.43;;;;;;;7.63;100.00;101142.88;20950169;28;20056;-71
2022/02/03 00:25:41;;;;;;;12.35;6.80;;;;;;;7.64;100.00;101152.44;20949296;28;20300;-71
2022/02/03 00:35:58;;;;;;;11.07;7.15;;;;;;;7.63;100.00;101145.50;20947176;28;20045;-72
2022/02/03 00:56:33;;;;;;;13.77;8.48;;;;;;;7.47;100.00;101121.03;20944736;28;20041;-72
2022/02/03 01:06:41;;;;;;;20.08;11.40;;;;;;;7.40;100.00;101137.47;20943297;28;20122;-71
2022/02/03 01:37:22;;;;;;;12.50;7.20;;;;;;;7.38;100.00;101107.94;20944953;28;20043;-72
2022/02/03 01:57:47;;;;;;;12.90;7.57;;;;;;;7.37;100.00;101107.03;20942816;28;20044;-72
2022/02/03 02:08:02;;;;;;;12.82;7.53;;;;;;;7.41;100.00;101107.94;20940810;28;20049;-71
2022/02/03 02:18:35;;;;;;;12.38;7.80;;;;;;;7.56;100.00;101097.66;20942158;28;20045;-70
2022/02/03 02:39:09;;;;;;;14.13;6.43;;;;;;;7.47;100.00;101081.94;20941588;28;20045;-72
2022/02/03 02:49:17;;;;;;;12.00;6.78;;;;;;;7.48;100.00;101077.63;20939160;28;20099;-71
2022/02/03 03:00:22;;;;;;;11.20;6.93;;;;;;;7.46;100.00;101060.22;20938691;28;20049;-71
2022/02/03 03:31:22;;;;;;;13.57;7.70;;;;;;;7.50;100.00;101065.47;20952450;28;20053;-71
2022/02/03 03:41:26;;;;;;;14.43;7.57;;;;;;;7.45;100.00;101032.44;20952648;28;20141;-71
2022/02/03 03:51:37;;;;;;;14.33;7.57;;;;;;;7.43;100.00;101038.50;20951300;28;20151;-71
2022/02/03 05:04:44;;;;;;;18.63;10.23;;;;;;;7.23;100.00;100981.03;20946780;28;20041;-70
2022/02/03 05:15:34;;;;;;;21.27;10.60;;;;;;;7.37;100.00;100978.53;20945497;28;20109;-70
2022/02/03 05:46:55;;;;;;;18.73;10.13;;;;;;;7.17;100.00;100957.56;20940676;28;20056;-72
2022/02/03 06:07:41;;;;;;;17.58;9.75;;;;;;;7.14;100.00;100918.50;20941063;28;20078;-72
2022/02/03 06:28:15;;;;;;;17.63;9.43;;;;;;;7.08;100.00;100895.88;20942912;28;20101;-71
2022/02/03 06:38:16;;;;;;;18.50;10.70;;;;;;;7.07;100.00;100914.09;20939574;28;20481;-72
2022/02/03 06:48:20;;;;;;;18.42;10.32;;;;;;;6.86;100.00;100905.28;20939004;28;20052;-73
2022/02/03 06:58:27;;;;;;;20.20;11.05;;;;;;;6.73;100.00;100913.84;20954061;28;20049;-72
2022/02/03 07:08:31;;;;;;;21.88;11.40;;;;;;;6.77;100.00;100902.59;20954285;28;20208;-74
2022/02/03 07:18:32;;;;;;;21.27;11.70;;;;;;;6.85;100.00;100893.13;20954016;28;20049;-73
2022/02/03 07:28:34;;;;;;;18.50;9.32;;;;;;;6.93;100.00;100881.00;20955186;28;20056;-73
2022/02/03 07:38:40;;;;;;;19.88;10.20;;;;;;;7.03;100.00;100855.91;20952340;28;20048;-73
2022/02/03 07:48:42;;;;;;;20.95;10.65;;;;;;;7.23;100.00;100849.94;20951031;28;20048;-73
2022/02/03 07:58:43;;;;;;;25.15;14.13;;;;;;;7.53;100.00;100841.41;20955132;28;20037;-73
2022/02/03 08:08:49;;;;;;;26.30;15.27;;;;;;;7.61;100.00;100837.06;20953923;28;20494;-73
2022/02/03 08:18:58;;;;;;;23.90;13.80;;;;;;;7.61;100.00;100824.03;20945159;28;20099;-72
2022/02/03 08:39:11;;;;;;;21.45;12.90;;;;;;;7.85;100.00;100807.59;20964172;28;20558;-73
2022/02/03 08:49:13;;;;;;;19.60;11.80;;;;;;;8.02;100.00;100815.47;20958943;28;20075;-72
2022/02/03 08:59:37;;;;;;;19.13;11.05;;;;;;;8.04;100.00;100800.69;20941452;28;20520;-72
2022/02/03 09:40:59;;;;;;;18.63;11.07;;;;;;;8.60;100.00;100748.50;20935326;28;20048;-72
2022/02/03 09:51:40;;;;;;;20.10;11.45;;;;;;;8.85;100.00;100736.25;20931955;28;20052;-75
2022/02/03 10:01:40;;;;;;;66.97;13.98;;;;;;;9.20;100.00;100736.13;20934075;28;20095;-71
2022/02/03 10:11:41;;;;;;;;;;;;;;;9.21;100.00;100705.66;21033819;22;20045;-69
2022/02/03 10:21:47;;;;;;;11.63;7.43;;;;;;;9.38;100.00;100693.34;20945485;28;19978;-70
2022/02/03 10:31:50;;;;;;;9.20;6.43;;;;;;;9.23;100.00;100677.75;20976843;28;20053;-66
2022/02/03 11:02:39;;;;;;;9.65;5.85;;;;;;;9.14;100.00;100610.75;20925686;28;20044;-66
2022/02/03 11:12:44;;;;;;;8.68;4.35;;;;;;;9.25;99.06;100634.22;20984253;28;20471;-66
2022/02/03 11:54:27;;;;;;;5.53;2.70;;;;;;;9.72;91.39;100551.91;20982272;28;20049;-66
2022/02/03 12:25:36;;;;;;;4.55;2.55;;;;;;;10.03;91.83;100453.06;20981771;28;20122;-67
2022/02/03 12:46:06;;;;;;;5.07;2.30;;;;;;;10.05;88.03;100429.50;20979384;28;20113;-67
2022/02/03 12:56:09;;;;;;;5.17;2.60;;;;;;;9.86;88.66;100442.78;20979002;28;20102;-67
2022/02/03 13:06:16;;;;;;;5.43;2.80;;;;;;;9.76;88.13;100425.50;20978755;28;20093;-67
2022/02/03 13:16:19;;;;;;;4.68;2.38;;;;;;;9.62;91.20;100425.66;20974278;28;20501;-66
2022/02/03 13:26:27;;;;;;;4.68;2.55;;;;;;;9.58;91.56;100392.63;20977106;28;20052;-67
2022/02/03 13:36:40;;;;;;;13.27;5.18;;;;;;;9.72;89.99;100384.56;20976297;28;20083;-67
2022/02/03 13:46:45;;;;;;;8.82;3.97;;;;;;;9.78;88.64;100374.06;20976202;28;20049;-66
2022/02/03 14:27:51;;;;;;;5.78;2.80;;;;;;;9.57;89.54;100340.34;20973828;28;20059;-65
2022/02/03 14:47:57;;;;;;;7.37;4.00;;;;;;;9.41;91.32;100335.31;20963321;28;20102;-66
2022/02/03 14:58:00;;;;;;;6.18;3.38;;;;;;;9.28;91.40;100344.16;20967480;28;20044;-66
2022/02/03 15:08:07;;;;;;;6.13;3.03;;;;;;;9.19;91.96;100328.59;20970407;28;20052;-66
2022/02/03 15:18:08;;;;;;;4.38;2.38;;;;;;;8.97;91.06;100330.56;20985065;28;20045;-66
2022/02/03 15:28:10;;;;;;;5.32;2.40;;;;;;;8.84;90.42;100335.03;20983773;28;20044;-66
2022/02/03 15:38:15;;;;;;;4.28;1.70;;;;;;;8.71;90.73;100328.19;20984933;28;20928;-67
2022/02/03 15:48:33;;;;;;;6.22;2.15;;;;;;;8.53;90.24;100344.03;20981065;28;20074;-67
2022/02/03 16:19:20;;;;;;;2.55;1.30;;;;;;;8.24;90.99;100337.28;20811352;22;20514;-74
2022/02/03 17:00:24;;;;;;;4.90;2.13;;;;;;;8.15;91.97;100337.34;20771705;28;20053;-73
2022/02/03 17:10:31;;;;;;;4.82;1.98;;;;;;;8.00;94.21;100334.81;20770926;28;20394;-74
2022/02/03 17:20:36;;;;;;;15.95;8.50;;;;;;;7.94;95.58;100313.13;20771179;28;20045;-73
2022/02/03 17:30:45;;;;;;;18.17;12.65;;;;;;;7.88;95.17;100322.72;20768866;28;20423;-73
2022/02/03 20:15:00;;;;;;;8.82;4.78;;;;;;;7.52;96.66;100311.63;20767472;28;20076;-74
2022/02/03 20:25:02;;;;;;;8.27;4.03;;;;;;;7.55;96.38;100309.00;20775180;28;20049;-76
2022/02/03 20:35:04;;;;;;;7.68;4.70;;;;;;;7.57;96.45;100311.59;20761631;28;20095;-74
2022/02/03 20:45:06;;;;;;;9.30;4.63;;;;;;;7.55;97.61;100305.53;20768704;28;20042;-73
2022/02/03 20:55:08;;;;;;;9.50;4.78;;;;;;;7.61;95.97;100311.56;20767513;28;20419;-71
2022/02/03 21:05:15;;;;;;;9.60;5.07;;;;;;;7.58;96.67;100313.34;20767957;28;20038;-72
2022/02/03 21:15:26;;;;;;;9.55;5.25;;;;;;;7.59;96.76;100309.84;20766227;28;20072;-75
2022/02/03 21:25:40;;;;;;;10.27;5.57;;;;;;;7.56;96.75;100315.06;20763683;28;20237;-72
2022/02/03 21:35:45;;;;;;;12.27;6.03;;;;;;;7.58;96.89;100323.78;20764407;28;20105;-73
2022/02/03 21:45:47;;;;;;;10.23;5.65;;;;;;;7.51;96.58;100317.69;20773339;28;20083;-73
2022/02/03 21:55:49;;;;;;;10.65;4.80;;;;;;;7.59;93.65;100310.72;20759136;28;20071;-71
2022/02/03 22:05:51;;;;;;;9.82;5.63;;;;;;;7.55;93.23;100327.25;20766387;28;20092;-72
2022/02/03 22:15:53;;;;;;;10.35;5.38;;;;;;;7.50;94.12;100344.63;20760382;28;20526;-72
2022/02/03 22:27:08;;;;;;;8.38;4.00;;;;;;;7.46;92.02;100343.78;20760824;28;20095;-71
2022/02/03 22:47:16;;;;;;;7.70;4.05;;;;;;;7.35;92.03;100355.97;20760634;28;20045;-73
2022/02/03 22:57:15;;;;;;;6.75;3.65;;;;;;;7.37;91.19;100371.59;20756005;28;20046;-70
2022/02/03 23:07:23;;;;;;;6.68;3.90;;;;;;;7.30;92.68;100375.97;20761026;28;20038;-70
2022/02/03 23:27:57;;;;;;;6.85;3.40;;;;;;;7.26;91.77;100376.84;20760859;28;20057;-69
2022/02/03 23:38:15;;;;;;;7.25;4.05;;;;;;;7.16;93.56;100388.16;20776643;28;20068;-69
